sensor_id;sensor_type;location;lat;lon;timestamp;temperature;humidity
40123;DHT22;25832;45.490;4.912;2023-12-04T00:00:40;0.10;99.90
40123;DHT22;25832;45.490;4.912;2023-12-04T00:03:06;0.20;99.90
40123;DHT22;25832;45.490;4.912;2023-12-04T00:05:31;0.30;99.90
40123;DHT22;25832;45.490;4.912;2023-12-04T00:07:57;0.30;99.90
40123;DHT22;25832;45.490;4.912;2023-12-04T00:10:22;0.40;99.90
40123;DHT22;25832;45.490;4.912;2023-12-04T00:12:48;0.50;99.90
40123;DHT22;25832;45.490;4.912;2023-12-04T00:15:14;0.50;99.90
40123;DHT22;25832;45.490;4.912;2023-12-04T00:17:40;0.60;99.90
40123;DHT22;25832;45.490;4.912;2023-12-04T00:20:07;0.60;99.90
40123;DHT22;25832;45.490;4.912;2023-12-04T00:22:32;0.60;99.90
40123;DHT22;25832;45.490;4.912;2023-12-04T00:24:58;0.60;99.90
40123;DHT22;25832;45.490;4.912;2023-12-04T00:27:24;0.70;99.90
40123;DHT22;25832;45.490;4.912;2023-12-04T00:29:52;0.70;99.90
40123;DHT22;25832;45.490;4.912;2023-12-04T00:32:18;0.70;99.90
40123;DHT22;25832;45.490;4.912;2023-12-04T00:34:44;0.80;99.90
40123;DHT22;25832;45.490;4.912;2023-12-04T00:37:09;0.80;99.90
40123;DHT22;25832;45.490;4.912;2023-12-04T00:39:35;0.90;99.90
40123;DHT22;25832;45.490;4.912;2023-12-04T00:42:00;0.90;99.90
40123;DHT22;25832;45.490;4.912;2023-12-04T00:44:26;0.90;99.90
40123;DHT22;25832;45.490;4.912;2023-12-04T00:46:52;1.00;99.90
40123;DHT22;25832;45.490;4.912;2023-12-04T00:49:17;1.00;99.90
40123;DHT22;25832;45.490;4.912;2023-12-04T00:51:43;1.00;99.90
40123;DHT22;25832;45.490;4.912;2023-12-04T00:54:08;1.00;99.90
40123;DHT22;25832;45.490;4.912;2023-12-04T00:56:34;1.00;99.90
40123;DHT22;25832;45.490;4.912;2023-12-04T00:59:00;1.00;99.90
40123;DHT22;25832;45.490;4.912;2023-12-04T01:01:25;1.00;99.90
40123;DHT22;25832;45.490;4.912;2023-12-04T01:03:51;1.00;99.90
40123;DHT22;25832;45.490;4.912;2023-12-04T01:06:23;1.10;99.90
40123;DHT22;25832;45.490;4.912;2023-12-04T01:08:49;1.20;99.90
40123;DHT22;25832;45.490;4.912;2023-12-04T01:11:16;1.20;99.90
40123;DHT22;25832;45.490;4.912;2023-12-04T01:13:43;1.20;99.90
40123;DHT22;25832;45.490;4.912;2023-12-04T01:16:08;1.30;99.90
40123;DHT22;25832;45.490;4.912;2023-12-04T01:18:35;1.30;99.90
40123;DHT22;25832;45.490;4.912;2023-12-04T01:21:00;1.30;99.90
40123;DHT22;25832;45.490;4.912;2023-12-04T01:23:26;1.40;99.90
40123;DHT22;25832;45.490;4.912;2023-12-04T01:25:52;1.50;99.90
40123;DHT22;25832;45.490;4.912;2023-12-04T01:28:17;1.60;99.90
40123;DHT22;25832;45.490;4.912;2023-12-04T01:30:43;1.60;99.90
40123;DHT22;25832;45.490;4.912;2023-12-04T01:33:09;1.70;99.90
40123;DHT22;25832;45.490;4.912;2023-12-04T01:35:34;1.80;99.90
40123;DHT22;25832;45.490;4.912;2023-12-04T01:38:00;2.00;99.90
40123;DHT22;25832;45.490;4.912;2023-12-04T01:40:26;2.10;99.90
40123;DHT22;25832;45.490;4.912;2023-12-04T01:42:52;2.20;99.90
40123;DHT22;25832;45.490;4.912;2023-12-04T01:45:18;2.20;99.90
40123;DHT22;25832;45.490;4.912;2023-12-04T01:47:45;2.40;99.90
40123;DHT22;25832;45.490;4.912;2023-12-04T01:50:11;2.50;99.90
40123;DHT22;25832;45.490;4.912;2023-12-04T01:52:37;2.50;99.90
40123;DHT22;25832;45.490;4.912;2023-12-04T01:55:05;2.70;99.90
40123;DHT22;25832;45.490;4.912;2023-12-04T01:57:32;2.80;99.90
40123;DHT22;25832;45.490;4.912;2023-12-04T01:59:57;2.90;99.90
40123;DHT22;25832;45.490;4.912;2023-12-04T02:02:23;3.00;99.90
40123;DHT22;25832;45.490;4.912;2023-12-04T02:04:49;3.10;99.90
40123;DHT22;25832;45.490;4.912;2023-12-04T02:07:15;3.10;99.90
40123;DHT22;25832;45.490;4.912;2023-12-04T02:09:40;3.20;99.90
40123;DHT22;25832;45.490;4.912;2023-12-04T02:12:06;3.20;99.90
40123;DHT22;25832;45.490;4.912;2023-12-04T02:14:32;3.10;99.90
40123;DHT22;25832;45.490;4.912;2023-12-04T02:16:58;3.10;99.90
40123;DHT22;25832;45.490;4.912;2023-12-04T02:19:26;3.10;99.90
40123;DHT22;25832;45.490;4.912;2023-12-04T02:21:51;3.10;99.90
40123;DHT22;25832;45.490;4.912;2023-12-04T02:24:17;3.10;99.90
40123;DHT22;25832;45.490;4.912;2023-12-04T02:26:47;3.10;99.90
40123;DHT22;25832;45.490;4.912;2023-12-04T02:29:29;3.10;99.90
40123;DHT22;25832;45.490;4.912;2023-12-04T02:31:56;3.00;99.90
40123;DHT22;25832;45.490;4.912;2023-12-04T02:34:24;3.00;99.90
40123;DHT22;25832;45.490;4.912;2023-12-04T02:36:50;2.90;99.90
40123;DHT22;25832;45.490;4.912;2023-12-04T02:39:16;2.90;99.90
40123;DHT22;25832;45.490;4.912;2023-12-04T02:41:42;2.90;99.90
40123;DHT22;25832;45.490;4.912;2023-12-04T02:44:08;2.90;99.90
40123;DHT22;25832;45.490;4.912;2023-12-04T02:46:34;2.90;99.90
40123;DHT22;25832;45.490;4.912;2023-12-04T02:49:00;3.00;99.90
40123;DHT22;25832;45.490;4.912;2023-12-04T02:51:26;3.00;99.90
40123;DHT22;25832;45.490;4.912;2023-12-04T02:53:52;3.10;99.90
40123;DHT22;25832;45.490;4.912;2023-12-04T02:56:17;3.10;99.90
40123;DHT22;25832;45.490;4.912;2023-12-04T02:58:43;3.10;99.90
40123;DHT22;25832;45.490;4.912;2023-12-04T03:01:09;3.10;99.90
40123;DHT22;25832;45.490;4.912;2023-12-04T03:03:34;3.10;99.90
40123;DHT22;25832;45.490;4.912;2023-12-04T03:06:00;3.10;99.90
40123;DHT22;25832;45.490;4.912;2023-12-04T03:08:25;3.20;99.90
40123;DHT22;25832;45.490;4.912;2023-12-04T03:10:51;3.20;99.90
40123;DHT22;25832;45.490;4.912;2023-12-04T03:13:17;3.30;99.90
40123;DHT22;25832;45.490;4.912;2023-12-04T03:15:42;3.30;99.90
40123;DHT22;25832;45.490;4.912;2023-12-04T03:18:08;3.40;99.90
40123;DHT22;25832;45.490;4.912;2023-12-04T03:20:33;3.40;99.90
40123;DHT22;25832;45.490;4.912;2023-12-04T03:22:59;3.40;99.90
40123;DHT22;25832;45.490;4.912;2023-12-04T03:25:24;3.40;99.90
40123;DHT22;25832;45.490;4.912;2023-12-04T03:27:50;3.50;99.90
40123;DHT22;25832;45.490;4.912;2023-12-04T03:30:16;3.40;99.90
40123;DHT22;25832;45.490;4.912;2023-12-04T03:32:41;3.50;99.90
40123;DHT22;25832;45.490;4.912;2023-12-04T03:35:07;3.50;99.90
40123;DHT22;25832;45.490;4.912;2023-12-04T03:37:33;3.50;99.90
40123;DHT22;25832;45.490;4.912;2023-12-04T03:39:59;3.40;99.90
40123;DHT22;25832;45.490;4.912;2023-12-04T03:42:24;3.40;99.90
40123;DHT22;25832;45.490;4.912;2023-12-04T03:44:50;3.30;99.90
40123;DHT22;25832;45.490;4.912;2023-12-04T03:47:16;3.30;99.90
40123;DHT22;25832;45.490;4.912;2023-12-04T03:49:41;3.40;99.90
40123;DHT22;25832;45.490;4.912;2023-12-04T03:52:07;3.40;99.90
40123;DHT22;25832;45.490;4.912;2023-12-04T03:54:32;3.50;99.90
40123;DHT22;25832;45.490;4.912;2023-12-04T03:56:58;3.50;99.90
40123;DHT22;25832;45.490;4.912;2023-12-04T03:59:24;3.60;99.90
40123;DHT22;25832;45.490;4.912;2023-12-04T04:01:49;3.50;99.90
40123;DHT22;25832;45.490;4.912;2023-12-04T04:04:15;3.50;99.90
40123;DHT22;25832;45.490;4.912;2023-12-04T04:06:40;3.50;99.90
40123;DHT22;25832;45.490;4.912;2023-12-04T04:09:06;3.60;99.90
40123;DHT22;25832;45.490;4.912;2023-12-04T04:11:31;3.60;99.90
40123;DHT22;25832;45.490;4.912;2023-12-04T04:13:57;3.50;99.90
40123;DHT22;25832;45.490;4.912;2023-12-04T04:16:23;3.60;99.90
40123;DHT22;25832;45.490;4.912;2023-12-04T04:18:48;3.60;99.90
40123;DHT22;25832;45.490;4.912;2023-12-04T04:21:14;3.60;99.90
40123;DHT22;25832;45.490;4.912;2023-12-04T04:23:40;3.60;99.90
40123;DHT22;25832;45.490;4.912;2023-12-04T04:26:05;3.70;99.90
40123;DHT22;25832;45.490;4.912;2023-12-04T04:28:31;3.70;99.90
40123;DHT22;25832;45.490;4.912;2023-12-04T04:30:57;3.70;99.90
40123;DHT22;25832;45.490;4.912;2023-12-04T04:33:23;3.70;99.90
40123;DHT22;25832;45.490;4.912;2023-12-04T04:35:49;3.80;99.90
40123;DHT22;25832;45.490;4.912;2023-12-04T04:38:14;3.80;99.90
40123;DHT22;25832;45.490;4.912;2023-12-04T04:40:40;3.90;99.90
40123;DHT22;25832;45.490;4.912;2023-12-04T04:43:09;3.90;99.90
40123;DHT22;25832;45.490;4.912;2023-12-04T04:45:35;3.90;99.90
40123;DHT22;25832;45.490;4.912;2023-12-04T04:48:01;4.00;99.90
40123;DHT22;25832;45.490;4.912;2023-12-04T04:50:27;4.00;99.90
40123;DHT22;25832;45.490;4.912;2023-12-04T04:52:52;4.00;99.90
40123;DHT22;25832;45.490;4.912;2023-12-04T04:55:18;4.00;99.90
40123;DHT22;25832;45.490;4.912;2023-12-04T04:57:44;4.00;99.90
40123;DHT22;25832;45.490;4.912;2023-12-04T05:00:10;4.10;99.90
40123;DHT22;25832;45.490;4.912;2023-12-04T05:02:36;4.10;99.90
40123;DHT22;25832;45.490;4.912;2023-12-04T05:05:03;4.20;99.90
40123;DHT22;25832;45.490;4.912;2023-12-04T05:07:29;4.30;99.90
40123;DHT22;25832;45.490;4.912;2023-12-04T05:09:55;4.30;99.90
40123;DHT22;25832;45.490;4.912;2023-12-04T05:12:21;4.40;99.90
40123;DHT22;25832;45.490;4.912;2023-12-04T05:14:46;4.40;99.90
40123;DHT22;25832;45.490;4.912;2023-12-04T05:17:12;4.50;99.90
40123;DHT22;25832;45.490;4.912;2023-12-04T05:19:37;4.50;99.90
40123;DHT22;25832;45.490;4.912;2023-12-04T05:22:03;4.50;99.90
40123;DHT22;25832;45.490;4.912;2023-12-04T05:24:29;4.50;99.90
40123;DHT22;25832;45.490;4.912;2023-12-04T05:26:54;4.60;99.90
40123;DHT22;25832;45.490;4.912;2023-12-04T05:29:20;4.60;99.90
40123;DHT22;25832;45.490;4.912;2023-12-04T05:31:46;4.60;99.90
40123;DHT22;25832;45.490;4.912;2023-12-04T05:34:12;4.60;99.90
40123;DHT22;25832;45.490;4.912;2023-12-04T05:36:38;4.70;99.90
40123;DHT22;25832;45.490;4.912;2023-12-04T05:39:04;4.70;99.90
40123;DHT22;25832;45.490;4.912;2023-12-04T05:41:30;4.70;99.90
40123;DHT22;25832;45.490;4.912;2023-12-04T05:43:56;4.70;99.90
40123;DHT22;25832;45.490;4.912;2023-12-04T05:46:21;4.70;99.90
40123;DHT22;25832;45.490;4.912;2023-12-04T05:48:48;4.80;99.90
40123;DHT22;25832;45.490;4.912;2023-12-04T05:51:14;4.80;99.90
40123;DHT22;25832;45.490;4.912;2023-12-04T05:53:40;4.80;99.90
40123;DHT22;25832;45.490;4.912;2023-12-04T05:56:06;4.90;99.90
40123;DHT22;25832;45.490;4.912;2023-12-04T05:58:34;4.90;99.90
40123;DHT22;25832;45.490;4.912;2023-12-04T06:01:00;5.00;99.90
40123;DHT22;25832;45.490;4.912;2023-12-04T06:03:26;5.10;99.90
40123;DHT22;25832;45.490;4.912;2023-12-04T06:05:51;5.10;99.90
40123;DHT22;25832;45.490;4.912;2023-12-04T06:08:17;5.20;99.90
40123;DHT22;25832;45.490;4.912;2023-12-04T06:10:42;5.30;99.90
40123;DHT22;25832;45.490;4.912;2023-12-04T06:13:08;5.40;99.90
40123;DHT22;25832;45.490;4.912;2023-12-04T06:15:34;5.40;99.90
40123;DHT22;25832;45.490;4.912;2023-12-04T06:17:59;5.50;99.90
40123;DHT22;25832;45.490;4.912;2023-12-04T06:20:25;5.50;99.90
40123;DHT22;25832;45.490;4.912;2023-12-04T06:22:51;5.50;99.90
40123;DHT22;25832;45.490;4.912;2023-12-04T06:25:17;5.60;99.90
40123;DHT22;25832;45.490;4.912;2023-12-04T06:27:43;5.60;99.90
40123;DHT22;25832;45.490;4.912;2023-12-04T06:30:09;5.60;99.90
40123;DHT22;25832;45.490;4.912;2023-12-04T06:32:35;5.60;99.90
40123;DHT22;25832;45.490;4.912;2023-12-04T06:35:01;5.60;99.90
40123;DHT22;25832;45.490;4.912;2023-12-04T06:37:29;5.60;99.90
40123;DHT22;25832;45.490;4.912;2023-12-04T06:39:56;5.60;99.90
40123;DHT22;25832;45.490;4.912;2023-12-04T06:42:22;5.60;99.90
40123;DHT22;25832;45.490;4.912;2023-12-04T06:44:48;5.60;99.90
40123;DHT22;25832;45.490;4.912;2023-12-04T06:47:20;5.60;99.90
40123;DHT22;25832;45.490;4.912;2023-12-04T06:49:47;5.50;99.90
40123;DHT22;25832;45.490;4.912;2023-12-04T06:52:13;5.50;99.90
40123;DHT22;25832;45.490;4.912;2023-12-04T06:54:38;5.50;99.90
40123;DHT22;25832;45.490;4.912;2023-12-04T06:57:04;5.50;99.90
40123;DHT22;25832;45.490;4.912;2023-12-04T06:59:30;5.50;99.90
40123;DHT22;25832;45.490;4.912;2023-12-04T07:01:56;5.40;99.90
40123;DHT22;25832;45.490;4.912;2023-12-04T07:04:21;5.40;99.90
40123;DHT22;25832;45.490;4.912;2023-12-04T07:06:47;5.30;99.90
40123;DHT22;25832;45.490;4.912;2023-12-04T07:09:16;5.30;99.90
40123;DHT22;25832;45.490;4.912;2023-12-04T07:11:42;5.20;99.90
40123;DHT22;25832;45.490;4.912;2023-12-04T07:14:08;5.20;99.90
40123;DHT22;25832;45.490;4.912;2023-12-04T07:16:41;5.20;99.90
40123;DHT22;25832;45.490;4.912;2023-12-04T07:19:08;5.10;99.90
40123;DHT22;25832;45.490;4.912;2023-12-04T07:21:33;5.10;99.90
40123;DHT22;25832;45.490;4.912;2023-12-04T07:23:59;5.10;99.90
40123;DHT22;25832;45.490;4.912;2023-12-04T07:26:25;5.10;99.90
40123;DHT22;25832;45.490;4.912;2023-12-04T07:28:50;5.10;99.90
40123;DHT22;25832;45.490;4.912;2023-12-04T07:31:16;5.10;99.90
40123;DHT22;25832;45.490;4.912;2023-12-04T07:33:41;5.10;99.90
40123;DHT22;25832;45.490;4.912;2023-12-04T07:36:07;5.10;99.90
40123;DHT22;25832;45.490;4.912;2023-12-04T07:38:33;5.20;99.90
40123;DHT22;25832;45.490;4.912;2023-12-04T07:40:59;5.30;99.90
40123;DHT22;25832;45.490;4.912;2023-12-04T07:43:24;5.40;99.90
40123;DHT22;25832;45.490;4.912;2023-12-04T07:45:50;5.50;99.90
40123;DHT22;25832;45.490;4.912;2023-12-04T07:48:16;5.50;99.90
40123;DHT22;25832;45.490;4.912;2023-12-04T07:50:42;5.50;99.90
40123;DHT22;25832;45.490;4.912;2023-12-04T07:53:07;5.70;99.90
40123;DHT22;25832;45.490;4.912;2023-12-04T07:55:35;5.70;99.90
40123;DHT22;25832;45.490;4.912;2023-12-04T07:58:01;5.90;99.90
40123;DHT22;25832;45.490;4.912;2023-12-04T08:00:26;5.90;99.90
40123;DHT22;25832;45.490;4.912;2023-12-04T08:02:52;6.00;99.90
40123;DHT22;25832;45.490;4.912;2023-12-04T08:05:17;6.20;99.90
40123;DHT22;25832;45.490;4.912;2023-12-04T08:07:43;6.30;99.90
40123;DHT22;25832;45.490;4.912;2023-12-04T08:10:09;6.40;99.90
40123;DHT22;25832;45.490;4.912;2023-12-04T08:12:34;6.50;99.90
40123;DHT22;25832;45.490;4.912;2023-12-04T08:15:00;6.60;99.90
40123;DHT22;25832;45.490;4.912;2023-12-04T08:17:27;6.60;99.90
40123;DHT22;25832;45.490;4.912;2023-12-04T08:19:52;6.70;99.90
40123;DHT22;25832;45.490;4.912;2023-12-04T08:22:19;6.80;99.90
40123;DHT22;25832;45.490;4.912;2023-12-04T08:24:45;6.90;99.90
40123;DHT22;25832;45.490;4.912;2023-12-04T08:27:10;7.00;99.90
40123;DHT22;25832;45.490;4.912;2023-12-04T08:29:36;7.10;99.90
40123;DHT22;25832;45.490;4.912;2023-12-04T08:32:02;7.20;99.90
40123;DHT22;25832;45.490;4.912;2023-12-04T08:34:27;7.30;99.90
40123;DHT22;25832;45.490;4.912;2023-12-04T08:36:53;7.40;99.90
40123;DHT22;25832;45.490;4.912;2023-12-04T08:39:19;7.50;99.90
40123;DHT22;25832;45.490;4.912;2023-12-04T08:41:45;7.60;99.90
40123;DHT22;25832;45.490;4.912;2023-12-04T08:44:12;7.60;99.90
40123;DHT22;25832;45.490;4.912;2023-12-04T08:46:38;7.70;99.90
40123;DHT22;25832;45.490;4.912;2023-12-04T08:49:03;7.70;99.90
40123;DHT22;25832;45.490;4.912;2023-12-04T08:51:29;7.80;99.90
40123;DHT22;25832;45.490;4.912;2023-12-04T08:53:56;7.80;99.90
40123;DHT22;25832;45.490;4.912;2023-12-04T08:56:22;7.90;99.90
40123;DHT22;25832;45.490;4.912;2023-12-04T08:58:48;7.90;99.90
40123;DHT22;25832;45.490;4.912;2023-12-04T09:01:16;7.90;99.90
40123;DHT22;25832;45.490;4.912;2023-12-04T09:03:41;8.00;99.90
40123;DHT22;25832;45.490;4.912;2023-12-04T09:06:07;8.00;99.90
40123;DHT22;25832;45.490;4.912;2023-12-04T09:08:34;8.00;99.90
40123;DHT22;25832;45.490;4.912;2023-12-04T09:10:59;8.00;99.90
40123;DHT22;25832;45.490;4.912;2023-12-04T09:13:25;8.10;99.90
40123;DHT22;25832;45.490;4.912;2023-12-04T09:15:51;8.00;99.90
40123;DHT22;25832;45.490;4.912;2023-12-04T09:18:17;8.00;99.90
40123;DHT22;25832;45.490;4.912;2023-12-04T09:20:43;8.00;99.90
40123;DHT22;25832;45.490;4.912;2023-12-04T09:23:08;8.00;99.90
40123;DHT22;25832;45.490;4.912;2023-12-04T09:25:35;8.10;99.90
40123;DHT22;25832;45.490;4.912;2023-12-04T09:28:01;8.10;99.90
40123;DHT22;25832;45.490;4.912;2023-12-04T09:30:26;8.10;99.90
40123;DHT22;25832;45.490;4.912;2023-12-04T09:32:52;8.10;99.90
40123;DHT22;25832;45.490;4.912;2023-12-04T09:35:17;8.10;99.90
40123;DHT22;25832;45.490;4.912;2023-12-04T09:37:43;8.20;99.90
40123;DHT22;25832;45.490;4.912;2023-12-04T09:40:09;8.20;99.90
40123;DHT22;25832;45.490;4.912;2023-12-04T09:42:36;8.10;99.90
40123;DHT22;25832;45.490;4.912;2023-12-04T09:45:01;8.10;99.90
40123;DHT22;25832;45.490;4.912;2023-12-04T09:47:28;8.00;99.90
40123;DHT22;25832;45.490;4.912;2023-12-04T09:49:56;8.00;99.90
40123;DHT22;25832;45.490;4.912;2023-12-04T09:52:22;7.90;99.90
40123;DHT22;25832;45.490;4.912;2023-12-04T09:54:50;7.90;99.90
40123;DHT22;25832;45.490;4.912;2023-12-04T09:57:16;7.90;99.90
40123;DHT22;25832;45.490;4.912;2023-12-04T09:59:44;7.90;99.90
40123;DHT22;25832;45.490;4.912;2023-12-04T10:02:10;7.80;99.90
40123;DHT22;25832;45.490;4.912;2023-12-04T10:04:35;7.80;99.90
40123;DHT22;25832;45.490;4.912;2023-12-04T10:07:02;7.90;99.90
40123;DHT22;25832;45.490;4.912;2023-12-04T10:09:28;7.80;99.90
40123;DHT22;25832;45.490;4.912;2023-12-04T10:11:56;7.90;99.90
40123;DHT22;25832;45.490;4.912;2023-12-04T10:14:22;7.80;99.90
40123;DHT22;25832;45.490;4.912;2023-12-04T10:16:48;7.90;99.90
40123;DHT22;25832;45.490;4.912;2023-12-04T10:19:28;8.00;99.90
40123;DHT22;25832;45.490;4.912;2023-12-04T10:21:58;8.00;99.90
40123;DHT22;25832;45.490;4.912;2023-12-04T10:24:32;8.00;99.90
40123;DHT22;25832;45.490;4.912;2023-12-04T10:26:59;8.10;99.90
40123;DHT22;25832;45.490;4.912;2023-12-04T10:29:29;8.20;99.90
40123;DHT22;25832;45.490;4.912;2023-12-04T10:32:04;8.20;99.90
40123;DHT22;25832;45.490;4.912;2023-12-04T10:34:31;8.30;99.90
40123;DHT22;25832;45.490;4.912;2023-12-04T10:36:59;8.30;99.90
40123;DHT22;25832;45.490;4.912;2023-12-04T10:39:25;8.40;99.90
40123;DHT22;25832;45.490;4.912;2023-12-04T10:42:01;8.40;99.90
40123;DHT22;25832;45.490;4.912;2023-12-04T10:44:28;8.40;99.90
40123;DHT22;25832;45.490;4.912;2023-12-04T10:46:55;8.50;99.90
40123;DHT22;25832;45.490;4.912;2023-12-04T10:49:28;8.50;99.90
40123;DHT22;25832;45.490;4.912;2023-12-04T10:51:57;8.40;99.90
40123;DHT22;25832;45.490;4.912;2023-12-04T10:54:25;8.50;99.90
40123;DHT22;25832;45.490;4.912;2023-12-04T10:56:52;8.40;99.90
40123;DHT22;25832;45.490;4.912;2023-12-04T10:59:23;8.40;99.90
40123;DHT22;25832;45.490;4.912;2023-12-04T11:01:52;8.30;99.90
40123;DHT22;25832;45.490;4.912;2023-12-04T11:04:20;8.20;99.90
40123;DHT22;25832;45.490;4.912;2023-12-04T11:06:52;8.20;99.90
40123;DHT22;25832;45.490;4.912;2023-12-04T11:09:17;8.10;99.90
40123;DHT22;25832;45.490;4.912;2023-12-04T11:11:48;8.00;99.90
40123;DHT22;25832;45.490;4.912;2023-12-04T11:14:18;7.90;99.90
40123;DHT22;25832;45.490;4.912;2023-12-04T11:16:49;7.90;99.90
40123;DHT22;25832;45.490;4.912;2023-12-04T11:22:00;7.80;99.90
40123;DHT22;25832;45.490;4.912;2023-12-04T11:24:27;7.70;99.90
40123;DHT22;25832;45.490;4.912;2023-12-04T11:26:54;7.70;99.90
40123;DHT22;25832;45.490;4.912;2023-12-04T11:29:20;7.60;99.90
40123;DHT22;25832;45.490;4.912;2023-12-04T11:31:47;7.60;99.90
40123;DHT22;25832;45.490;4.912;2023-12-04T11:34:12;7.60;99.90
40123;DHT22;25832;45.490;4.912;2023-12-04T11:36:38;7.60;99.90
40123;DHT22;25832;45.490;4.912;2023-12-04T11:39:08;7.70;99.90
40123;DHT22;25832;45.490;4.912;2023-12-04T11:41:36;7.70;99.90
40123;DHT22;25832;45.490;4.912;2023-12-04T11:44:02;7.70;99.90
40123;DHT22;25832;45.490;4.912;2023-12-04T11:46:29;7.80;99.90
40123;DHT22;25832;45.490;4.912;2023-12-04T11:48:57;7.80;99.90
40123;DHT22;25832;45.490;4.912;2023-12-04T11:54:10;7.80;99.90
40123;DHT22;25832;45.490;4.912;2023-12-04T11:56:35;7.80;99.90
40123;DHT22;25832;45.490;4.912;2023-12-04T11:59:05;7.90;99.90
40123;DHT22;25832;45.490;4.912;2023-12-04T12:01:37;7.80;99.90
40123;DHT22;25832;45.490;4.912;2023-12-04T12:04:06;7.90;99.90
40123;DHT22;25832;45.490;4.912;2023-12-04T12:06:32;7.90;99.90
40123;DHT22;25832;45.490;4.912;2023-12-04T12:08:58;7.90;99.90
40123;DHT22;25832;45.490;4.912;2023-12-04T12:11:24;7.80;99.90
40123;DHT22;25832;45.490;4.912;2023-12-04T12:13:50;7.80;99.90
40123;DHT22;25832;45.490;4.912;2023-12-04T12:16:18;7.80;99.90
40123;DHT22;25832;45.490;4.912;2023-12-04T12:18:43;7.70;99.90
40123;DHT22;25832;45.490;4.912;2023-12-04T12:21:09;7.60;99.90
40123;DHT22;25832;45.490;4.912;2023-12-04T12:23:35;7.60;99.90
40123;DHT22;25832;45.490;4.912;2023-12-04T12:26:01;7.60;99.90
40123;DHT22;25832;45.490;4.912;2023-12-04T12:28:28;7.50;99.90
40123;DHT22;25832;45.490;4.912;2023-12-04T12:30:54;7.50;99.90
40123;DHT22;25832;45.490;4.912;2023-12-04T12:33:20;7.50;99.90
40123;DHT22;25832;45.490;4.912;2023-12-04T12:35:47;7.50;99.90
40123;DHT22;25832;45.490;4.912;2023-12-04T12:38:13;7.50;99.90
40123;DHT22;25832;45.490;4.912;2023-12-04T12:40:39;7.50;99.90
40123;DHT22;25832;45.490;4.912;2023-12-04T12:43:09;7.40;99.90
40123;DHT22;25832;45.490;4.912;2023-12-04T12:45:41;7.40;99.90
40123;DHT22;25832;45.490;4.912;2023-12-04T12:48:13;7.40;99.90
40123;DHT22;25832;45.490;4.912;2023-12-04T12:50:41;7.40;99.90
40123;DHT22;25832;45.490;4.912;2023-12-04T12:53:07;7.40;99.90
40123;DHT22;25832;45.490;4.912;2023-12-04T12:55:32;7.40;99.90
40123;DHT22;25832;45.490;4.912;2023-12-04T12:57:58;7.40;99.90
40123;DHT22;25832;45.490;4.912;2023-12-04T13:00:24;7.50;99.90
40123;DHT22;25832;45.490;4.912;2023-12-04T13:02:53;7.50;99.90
40123;DHT22;25832;45.490;4.912;2023-12-04T13:05:22;7.50;99.90
40123;DHT22;25832;45.490;4.912;2023-12-04T13:07:47;7.50;99.90
40123;DHT22;25832;45.490;4.912;2023-12-04T13:10:13;7.50;99.90
40123;DHT22;25832;45.490;4.912;2023-12-04T13:12:40;7.50;99.90
40123;DHT22;25832;45.490;4.912;2023-12-04T13:15:05;7.50;99.90
40123;DHT22;25832;45.490;4.912;2023-12-04T13:17:31;7.40;99.90
40123;DHT22;25832;45.490;4.912;2023-12-04T13:19:57;7.40;99.90
40123;DHT22;25832;45.490;4.912;2023-12-04T13:22:23;7.40;99.90
40123;DHT22;25832;45.490;4.912;2023-12-04T13:24:49;7.40;99.90
40123;DHT22;25832;45.490;4.912;2023-12-04T13:27:15;7.40;99.90
40123;DHT22;25832;45.490;4.912;2023-12-04T13:29:40;7.50;99.90
40123;DHT22;25832;45.490;4.912;2023-12-04T13:32:06;7.50;99.90
40123;DHT22;25832;45.490;4.912;2023-12-04T13:34:33;7.50;99.90
40123;DHT22;25832;45.490;4.912;2023-12-04T13:36:58;7.50;99.90
40123;DHT22;25832;45.490;4.912;2023-12-04T13:39:24;7.50;99.90
40123;DHT22;25832;45.490;4.912;2023-12-04T13:42:04;7.40;99.90
40123;DHT22;25832;45.490;4.912;2023-12-04T13:44:48;7.40;99.90
40123;DHT22;25832;45.490;4.912;2023-12-04T13:47:14;7.40;99.90
40123;DHT22;25832;45.490;4.912;2023-12-04T13:49:41;7.30;99.90
40123;DHT22;25832;45.490;4.912;2023-12-04T13:52:07;7.30;99.90
40123;DHT22;25832;45.490;4.912;2023-12-04T13:54:33;7.30;99.90
40123;DHT22;25832;45.490;4.912;2023-12-04T13:57:25;7.30;99.90
40123;DHT22;25832;45.490;4.912;2023-12-04T14:00:01;7.30;99.90
40123;DHT22;25832;45.490;4.912;2023-12-04T14:02:27;7.30;99.90
40123;DHT22;25832;45.490;4.912;2023-12-04T14:04:53;7.20;99.90
40123;DHT22;25832;45.490;4.912;2023-12-04T14:07:19;7.30;99.90
40123;DHT22;25832;45.490;4.912;2023-12-04T14:09:44;7.20;99.90
40123;DHT22;25832;45.490;4.912;2023-12-04T14:12:10;7.20;99.90
40123;DHT22;25832;45.490;4.912;2023-12-04T14:14:37;7.30;99.90
40123;DHT22;25832;45.490;4.912;2023-12-04T14:17:03;7.40;99.90
40123;DHT22;25832;45.490;4.912;2023-12-04T14:19:30;7.50;99.90
40123;DHT22;25832;45.490;4.912;2023-12-04T14:21:56;7.50;99.90
40123;DHT22;25832;45.490;4.912;2023-12-04T14:24:21;7.60;99.90
40123;DHT22;25832;45.490;4.912;2023-12-04T14:26:48;7.60;99.90
40123;DHT22;25832;45.490;4.912;2023-12-04T14:29:13;7.60;99.90
40123;DHT22;25832;45.490;4.912;2023-12-04T14:31:39;7.60;99.90
40123;DHT22;25832;45.490;4.912;2023-12-04T14:34:05;7.50;99.90
40123;DHT22;25832;45.490;4.912;2023-12-04T14:36:31;7.50;99.90
40123;DHT22;25832;45.490;4.912;2023-12-04T14:38:58;7.50;99.90
40123;DHT22;25832;45.490;4.912;2023-12-04T14:41:24;7.50;99.90
40123;DHT22;25832;45.490;4.912;2023-12-04T14:43:50;7.40;99.90
40123;DHT22;25832;45.490;4.912;2023-12-04T14:46:16;7.30;99.90
40123;DHT22;25832;45.490;4.912;2023-12-04T14:48:42;7.30;99.90
40123;DHT22;25832;45.490;4.912;2023-12-04T14:51:09;7.30;99.90
40123;DHT22;25832;45.490;4.912;2023-12-04T14:53:40;7.20;99.90
40123;DHT22;25832;45.490;4.912;2023-12-04T14:56:24;7.20;99.90
40123;DHT22;25832;45.490;4.912;2023-12-04T14:58:53;7.20;99.90
40123;DHT22;25832;45.490;4.912;2023-12-04T15:01:31;7.20;99.90
40123;DHT22;25832;45.490;4.912;2023-12-04T15:04:22;7.20;99.90
40123;DHT22;25832;45.490;4.912;2023-12-04T15:07:06;7.20;99.90
40123;DHT22;25832;45.490;4.912;2023-12-04T15:09:50;7.20;99.90
40123;DHT22;25832;45.490;4.912;2023-12-04T15:12:34;7.20;99.90
40123;DHT22;25832;45.490;4.912;2023-12-04T15:15:18;7.20;99.90
40123;DHT22;25832;45.490;4.912;2023-12-04T15:18:02;7.20;99.90
40123;DHT22;25832;45.490;4.912;2023-12-04T15:20:47;7.20;99.90
40123;DHT22;25832;45.490;4.912;2023-12-04T15:23:13;7.20;99.90
40123;DHT22;25832;45.490;4.912;2023-12-04T15:25:39;7.20;99.90
40123;DHT22;25832;45.490;4.912;2023-12-04T15:28:05;7.20;99.90
40123;DHT22;25832;45.490;4.912;2023-12-04T15:30:35;7.20;99.90
40123;DHT22;25832;45.490;4.912;2023-12-04T15:33:02;7.20;99.90
40123;DHT22;25832;45.490;4.912;2023-12-04T15:35:28;7.20;99.90
40123;DHT22;25832;45.490;4.912;2023-12-04T15:37:53;7.20;99.90
40123;DHT22;25832;45.490;4.912;2023-12-04T15:40:19;7.20;99.90
40123;DHT22;25832;45.490;4.912;2023-12-04T15:42:44;7.10;99.90
40123;DHT22;25832;45.490;4.912;2023-12-04T15:45:10;7.10;99.90
40123;DHT22;25832;45.490;4.912;2023-12-04T15:47:36;7.10;99.90